Time;durP1;ratioP1;P1;durP2;ratioP2;P2;SDS_P1;SDS_P2;PMS_P1;PMS_P2;Temp;Humidity;BMP_temperature;BMP_pressure;BME280_temperature;BME280_humidity;BME280_pressure;Samples;Min_cycle;Max_cycle;Signal;HPM_P1;HPM_P2
2022/06/25 00:01:19;;;;;;;;;3.50;1.00;;;;;23.43;44.07;100381.00;5113292;27;45329;-59
2022/06/25 00:03:44;;;;;;;;;1.00;1.00;;;;;23.43;43.81;100381.84;5105621;27;45314;-59
2022/06/25 00:06:11;;;;;;;;;2.75;2.00;;;;;23.38;44.32;100378.72;5100781;27;45578;-59
2022/06/25 00:08:38;;;;;;;;;2.25;1.00;;;;;23.36;43.90;100370.00;5102579;27;45623;-59
2022/06/25 00:11:04;;;;;;;;;1.00;1.00;;;;;23.36;44.21;100369.19;5099866;27;45397;-58
2022/06/25 00:13:30;;;;;;;;;2.25;2.25;;;;;23.34;44.22;100366.63;5104047;27;45216;-58
2022/06/25 00:15:56;;;;;;;;;4.50;2.00;;;;;23.33;44.52;100374.78;5111388;27;45508;-59
2022/06/25 00:18:21;;;;;;;;;1.50;0.75;;;;;23.33;44.46;100372.09;5107575;27;57470;-59
2022/06/25 00:20:47;;;;;;;;;3.00;1.75;;;;;23.32;44.67;100368.59;5101449;27;45223;-59
2022/06/25 00:23:13;;;;;;;;;2.25;2.00;;;;;23.32;44.49;100373.94;5106217;27;45460;-59
2022/06/25 00:25:38;;;;;;;;;2.50;1.25;;;;;23.28;45.02;100368.03;5109414;27;45913;-59
2022/06/25 00:28:05;;;;;;;;;2.00;2.00;;;;;23.25;45.13;100370.13;5103576;27;47904;-59
2022/06/25 00:30:30;;;;;;;;;3.00;1.00;;;;;23.20;45.43;100372.31;5100361;27;45530;-59
2022/06/25 00:32:56;;;;;;;;;1.75;1.25;;;;;23.18;45.45;100368.91;5099487;27;46171;-59
2022/06/25 00:35:22;;;;;;;;;1.00;1.00;;;;;23.18;45.76;100374.25;5098013;27;45646;-59
2022/06/25 00:37:47;;;;;;;;;2.50;2.00;;;;;23.15;46.16;100367.38;5093949;27;45850;-59
2022/06/25 00:40:13;;;;;;;;;2.50;2.00;;;;;23.13;46.23;100372.84;5101044;27;45562;-59
2022/06/25 00:42:45;;;;;;;;;1.50;1.50;;;;;23.08;46.16;100372.38;5097399;27;53786;-59
2022/06/25 00:45:11;;;;;;;;;2.25;1.75;;;;;23.08;45.94;100376.88;5098210;27;45626;-59
2022/06/25 00:47:37;;;;;;;;;2.25;1.00;;;;;23.03;46.40;100374.56;5107612;27;45655;-59
2022/06/25 00:50:03;;;;;;;;;2.00;2.00;;;;;23.03;46.69;100371.91;5100512;27;68734;-58
2022/06/25 00:52:32;;;;;;;;;2.75;2.75;;;;;23.03;46.72;100379.06;5107270;27;45396;-59
2022/06/25 00:55:12;;;;;;;;;3.00;2.00;;;;;23.01;46.78;100376.53;5105214;27;45274;-59
2022/06/25 00:57:43;;;;;;;;;2.75;2.00;;;;;23.03;46.58;100389.75;5086650;27;45547;-59
2022/06/25 01:00:12;;;;;;;;;3.50;2.00;;;;;23.00;46.73;100379.31;5103878;27;46299;-59
2022/06/25 01:02:39;;;;;;;;;1.50;1.25;;;;;22.98;46.82;100383.94;5114343;27;45286;-59
2022/06/25 01:05:09;;;;;;;;;2.00;1.75;;;;;22.95;46.84;100385.06;5103217;27;45341;-59
2022/06/25 01:07:35;;;;;;;;;3.75;1.75;;;;;22.91;46.42;100386.28;5099923;27;46579;-59
2022/06/25 01:10:01;;;;;;;;;2.50;1.75;;;;;22.87;46.42;100383.03;5101086;27;45283;-59
2022/06/25 01:12:27;;;;;;;;;4.50;2.50;;;;;22.85;46.87;100379.66;5108617;27;45456;-59
2022/06/25 01:15:13;;;;;;;;;2.00;1.75;;;;;22.80;46.81;100371.19;5114737;27;73009;-59
2022/06/25 01:17:43;;;;;;;;;5.00;2.00;;;;;22.77;47.20;100376.81;5100124;27;45561;-59
2022/06/25 01:20:09;;;;;;;;;4.75;2.75;;;;;22.76;46.88;100375.09;5101652;27;45316;-59
2022/06/25 01:22:34;;;;;;;;;1.25;1.25;;;;;22.73;46.70;100376.22;5105265;27;45262;-59
2022/06/25 01:25:00;;;;;;;;;0.75;0.75;;;;;22.73;47.06;100383.34;5111499;27;47084;-59
2022/06/25 01:27:25;;;;;;;;;2.25;2.00;;;;;22.69;47.03;100388.09;5111512;27;46101;-59
2022/06/25 01:29:50;;;;;;;;;1.75;1.00;;;;;22.67;47.15;100374.03;5110195;27;68684;-59
2022/06/25 01:32:16;;;;;;;;;2.00;2.00;;;;;22.62;46.73;100370.06;5089288;27;65855;-59
2022/06/25 01:34:41;;;;;;;;;1.50;1.00;;;;;22.65;47.31;100384.00;5103110;27;68862;-59
2022/06/25 01:37:06;;;;;;;;;3.00;1.00;;;;;22.63;47.42;100377.09;5101203;27;70783;-59
2022/06/25 01:39:32;;;;;;;;;2.00;1.00;;;;;22.62;46.78;100381.56;5099469;27;45518;-59
2022/06/25 01:41:57;;;;;;;;;3.00;2.00;;;;;22.60;47.31;100380.03;5100411;27;45538;-59
2022/06/25 01:44:23;;;;;;;;;2.00;1.00;;;;;22.59;47.14;100379.16;5102972;27;60334;-59
2022/06/25 01:46:49;;;;;;;;;1.50;1.00;;;;;22.59;46.89;100383.66;5100608;27;46204;-59
2022/06/25 01:49:14;;;;;;;;;4.00;2.00;;;;;22.56;47.19;100376.78;5106472;27;45440;-59
2022/06/25 01:51:39;;;;;;;;;1.00;1.00;;;;;22.56;47.34;100382.09;5100048;27;64363;-59
2022/06/25 01:54:05;;;;;;;;;2.00;1.25;;;;;22.56;47.41;100385.59;5103698;27;67548;-59
2022/06/25 01:56:30;;;;;;;;;4.50;2.50;;;;;22.56;47.08;100388.28;5106988;27;67780;-59
2022/06/25 01:58:55;;;;;;;;;3.00;2.00;;;;;22.55;47.46;100383.06;5101307;27;50464;-59
2022/06/25 02:01:21;;;;;;;;;1.00;1.00;;;;;22.54;47.67;100382.22;5111475;27;45516;-59
2022/06/25 02:03:46;;;;;;;;;4.00;1.00;;;;;22.54;47.82;100390.22;5103291;27;69779;-59
2022/06/25 02:06:11;;;;;;;;;3.50;1.00;;;;;22.53;47.56;100385.03;5101511;27;73370;-59
2022/06/25 02:08:38;;;;;;;;;7.00;3.00;;;;;22.55;47.44;100396.41;5099448;27;72797;-59
2022/06/25 02:11:05;;;;;;;;;2.00;2.00;;;;;22.55;47.65;100388.41;5102899;27;45212;-59
2022/06/25 02:13:30;;;;;;;;;2.00;1.00;;;;;22.55;47.79;100385.72;5108150;27;45489;-59
2022/06/25 02:15:56;;;;;;;;;1.50;1.25;;;;;22.54;47.67;100387.56;5114864;27;46004;-59
2022/06/25 02:18:22;;;;;;;;;2.00;1.75;;;;;22.56;47.51;100395.44;5107482;27;45469;-59
2022/06/25 02:20:48;;;;;;;;;3.25;2.00;;;;;22.55;47.90;100397.25;5112174;27;45361;-59
2022/06/25 02:23:14;;;;;;;;;2.00;2.00;;;;;22.55;47.81;100388.41;5096708;27;45576;-59
2022/06/25 02:25:40;;;;;;;;;1.00;1.00;;;;;22.53;47.82;100393.03;5109315;27;45457;-59
2022/06/25 02:28:05;;;;;;;;;3.00;1.00;;;;;22.50;47.82;100393.25;5102664;27;45670;-59
2022/06/25 02:30:31;;;;;;;;;2.50;1.00;;;;;22.49;47.94;100388.91;5103799;27;45756;-59
2022/06/25 02:32:57;;;;;;;;;3.50;1.00;;;;;22.45;47.87;100396.34;5110456;27;45413;-59
2022/06/25 02:35:22;;;;;;;;;1.00;1.00;;;;;22.42;48.61;100385.91;5108260;27;61947;-59
2022/06/25 02:37:47;;;;;;;;;4.00;2.25;;;;;22.41;48.46;100384.19;5108027;27;52839;-59
2022/06/25 02:40:13;;;;;;;;;2.25;1.00;;;;;22.44;48.69;100380.47;5107249;27;67483;-59
2022/06/25 02:42:39;;;;;;;;;2.00;2.00;;;;;22.44;49.00;100375.97;5107496;27;50307;-59
2022/06/25 02:45:06;;;;;;;;;1.00;1.00;;;;;22.42;48.31;100382.41;5105657;27;46434;-59
2022/06/25 02:47:32;;;;;;;;;2.50;1.00;;;;;22.42;48.36;100391.25;5115020;27;46029;-59
2022/06/25 02:49:57;;;;;;;;;2.75;2.00;;;;;22.45;48.97;100398.13;5107105;27;45460;-58
2022/06/25 02:52:23;;;;;;;;;2.75;1.00;;;;;22.44;49.08;100401.78;5105935;27;45544;-58
2022/06/25 02:54:48;;;;;;;;;2.75;1.00;;;;;22.45;48.91;100408.78;5107267;27;60652;-59
2022/06/25 02:59:58;;;;;;;;;1.00;1.00;;;;;22.48;49.28;100406.72;5105308;27;45310;-59
2022/06/25 03:02:23;;;;;;;;;2.00;0.75;;;;;22.49;48.87;100412.91;5115343;27;54601;-58
2022/06/25 03:04:48;;;;;;;;;3.00;1.00;;;;;22.46;49.59;100414.00;5102117;27;65679;-59
2022/06/25 03:07:14;;;;;;;;;2.25;2.00;;;;;22.47;49.49;100420.19;5104110;27;62745;-58
2022/06/25 03:09:39;;;;;;;;;1.50;1.50;;;;;22.44;49.54;100409.78;5104244;27;45689;-58
2022/06/25 03:12:05;;;;;;;;;1.00;1.00;;;;;22.43;49.80;100406.25;5110314;27;45543;-59
2022/06/25 03:14:30;;;;;;;;;1.25;1.00;;;;;22.42;49.23;100403.75;5109047;27;45258;-58
2022/06/25 03:16:55;;;;;;;;;1.00;1.00;;;;;22.35;49.98;100400.72;5110241;27;68278;-59
2022/06/25 03:19:21;;;;;;;;;2.25;1.00;;;;;22.37;49.11;100406.78;5105428;27;66395;-59
2022/06/25 03:21:46;;;;;;;;;1.75;1.00;;;;;22.36;49.55;100410.41;5105393;27;45332;-59
2022/06/25 03:24:11;;;;;;;;;1.00;0.25;;;;;22.37;49.60;100412.09;5115810;27;74399;-59
2022/06/25 03:26:37;;;;;;;;;0.25;0.25;;;;;22.36;49.04;100411.25;5111971;27;59209;-59
2022/06/25 03:29:03;;;;;;;;;1.75;0.50;;;;;22.37;49.84;100407.59;5104237;27;45464;-58
2022/06/25 03:31:28;;;;;;;;;0.00;0.00;;;;;22.34;49.53;100402.50;5102086;27;45525;-59
2022/06/25 03:33:54;;;;;;;;;0.00;0.00;;;;;22.32;49.01;100409.78;5101765;27;46900;-58
2022/06/25 03:36:19;;;;;;;;;0.00;0.00;;;;;22.30;48.72;100413.56;5108498;27;68909;-58
2022/06/25 03:38:45;;;;;;;;;2.75;0.25;;;;;22.26;49.45;100410.28;5109741;27;45378;-58
2022/06/25 03:43:54;;;;;;;;;0.75;0.00;;;;;22.22;48.88;100422.16;5108682;27;45231;-59
2022/06/25 03:46:19;;;;;;;;;3.00;0.00;;;;;22.22;49.22;100418.63;5107278;27;51767;-59
2022/06/25 03:48:45;;;;;;;;;1.00;0.00;;;;;22.21;48.78;100424.97;5103839;27;64546;-59
2022/06/25 03:51:10;;;;;;;;;0.00;0.00;;;;;22.18;49.36;100428.72;5113780;27;49773;-59
2022/06/25 03:53:36;;;;;;;;;0.00;0.00;;;;;22.13;49.10;100426.44;5107718;27;46123;-59
2022/06/25 03:56:01;;;;;;;;;0.00;0.00;;;;;22.13;49.17;100434.44;5110158;27;60873;-59
2022/06/25 03:58:26;;;;;;;;;0.00;0.00;;;;;22.09;49.13;100424.13;5114168;27;48858;-59
2022/06/25 04:00:51;;;;;;;;;2.00;0.00;;;;;22.08;49.00;100428.63;5112530;27;71464;-59
2022/06/25 04:03:17;;;;;;;;;0.00;0.00;;;;;22.06;49.44;100421.69;5104232;27;46229;-59
2022/06/25 04:05:43;;;;;;;;;0.00;0.00;;;;;22.06;49.04;100427.03;5112357;27;45428;-59
2022/06/25 04:08:08;;;;;;;;;1.50;0.00;;;;;22.07;49.58;100428.72;5110608;27;46187;-59
2022/06/25 04:10:33;;;;;;;;;2.00;0.00;;;;;22.07;49.26;100429.56;5106837;27;46855;-59
2022/06/25 04:12:59;;;;;;;;;0.00;0.00;;;;;22.06;49.29;100430.56;5105542;27;74414;-59
2022/06/25 04:15:24;;;;;;;;;1.00;0.00;;;;;22.09;49.25;100440.13;5103223;27;64872;-59
2022/06/25 04:17:49;;;;;;;;;1.00;0.00;;;;;22.10;49.79;100449.81;5102223;27;45498;-59
2022/06/25 04:20:15;;;;;;;;;0.75;0.00;;;;;22.10;49.71;100445.31;5104677;27;49503;-59
2022/06/25 04:22:41;;;;;;;;;1.75;0.00;;;;;22.08;49.90;100449.94;5102314;27;61473;-59
2022/06/25 04:25:07;;;;;;;;;1.00;0.25;;;;;22.07;49.25;100437.56;5114113;27;46371;-59
2022/06/25 04:30:16;;;;;;;;;0.00;0.00;;;;;22.02;49.45;100446.91;5104672;27;45160;-59
2022/06/25 04:32:41;;;;;;;;;1.50;0.50;;;;;22.00;49.71;100453.19;5112108;27;74524;-59
2022/06/25 04:35:07;;;;;;;;;0.75;0.00;;;;;22.00;49.95;100453.19;5109435;27;48785;-59
2022/06/25 04:37:32;;;;;;;;;0.00;0.00;;;;;22.00;50.41;100452.34;5102978;27;45521;-59
2022/06/25 04:39:57;;;;;;;;;0.00;0.00;;;;;22.03;50.03;100451.25;5104863;27;63813;-58
2022/06/25 04:42:23;;;;;;;;;0.00;0.00;;;;;22.04;50.04;100451.13;5114118;27;72734;-58
2022/06/25 04:44:48;;;;;;;;;1.00;1.00;;;;;22.07;49.85;100455.38;5101753;27;45604;-59
2022/06/25 04:47:14;;;;;;;;;0.50;0.50;;;;;22.03;49.93;100460.13;5101697;27;55278;-58
2022/06/25 04:49:39;;;;;;;;;0.00;0.00;;;;;22.06;49.83;100465.19;5104356;27;45438;-59
2022/06/25 04:52:04;;;;;;;;;1.25;0.00;;;;;22.08;49.56;100454.41;5106042;27;46203;-59
2022/06/25 04:54:30;;;;;;;;;0.00;0.00;;;;;22.06;49.67;100454.53;5105167;27;45402;-59
2022/06/25 04:56:55;;;;;;;;;0.00;0.00;;;;;22.06;50.15;100461.66;5105931;27;45503;-59
2022/06/25 04:59:21;;;;;;;;;0.75;0.00;;;;;22.06;49.70;100459.00;5107791;27;66499;-59
2022/06/25 05:01:46;;;;;;;;;0.00;0.00;;;;;22.08;49.82;100471.25;5113351;27;46047;-59
2022/06/25 05:04:11;;;;;;;;;0.75;0.75;;;;;22.07;49.60;100468.72;5107403;27;45284;-59
2022/06/25 05:06:37;;;;;;;;;1.75;0.00;;;;;22.08;49.95;100481.03;5104742;27;45291;-59
2022/06/25 05:09:02;;;;;;;;;1.00;1.00;;;;;22.07;49.80;100479.38;5102777;27;45473;-61
2022/06/25 05:11:28;;;;;;;;;0.00;0.00;;;;;22.08;49.97;100479.25;5104978;27;67604;-58
2022/06/25 05:13:53;;;;;;;;;0.00;0.00;;;;;22.09;49.64;100480.09;5103413;27;45348;-59
2022/06/25 05:16:18;;;;;;;;;0.75;0.75;;;;;22.13;49.91;100486.84;5103818;27;62906;-59
2022/06/25 05:18:44;;;;;;;;;0.00;0.00;;;;;22.13;49.69;100490.41;5107627;27;45494;-59
2022/06/25 05:21:10;;;;;;;;;0.25;0.00;;;;;22.13;49.40;100486.84;5101004;27;45636;-59
2022/06/25 05:23:35;;;;;;;;;0.50;0.00;;;;;22.15;49.81;100493.78;5103078;27;45231;-58
2022/06/25 05:26:02;;;;;;;;;1.75;0.75;;;;;22.14;49.60;100500.06;5106730;27;45686;-58
2022/06/25 05:28:27;;;;;;;;;3.50;0.00;;;;;22.16;49.06;100494.63;5106328;27;45493;-59
2022/06/25 05:30:52;;;;;;;;;4.00;0.50;;;;;22.18;49.12;100501.50;5109658;27;47390;-59
2022/06/25 05:33:18;;;;;;;;;1.50;1.00;;;;;22.21;49.59;100497.78;5106699;27;45318;-59
2022/06/25 05:35:43;;;;;;;;;0.75;0.75;;;;;22.15;49.63;100485.78;5101264;27;45271;-59
2022/06/25 05:38:09;;;;;;;;;0.00;0.00;;;;;22.18;49.19;100503.34;5106835;27;45331;-59
2022/06/25 05:40:35;;;;;;;;;1.00;1.00;;;;;22.19;49.17;100492.56;5100740;27;56945;-58
2022/06/25 05:43:01;;;;;;;;;1.00;1.00;;;;;22.20;49.52;100496.06;5103322;27;45511;-58
2022/06/25 05:45:27;;;;;;;;;1.00;1.00;;;;;22.25;49.53;100506.38;5110508;27;45487;-59
2022/06/25 05:47:52;;;;;;;;;1.00;1.00;;;;;22.27;49.00;100507.97;5103876;27;45359;-59
2022/06/25 05:50:18;;;;;;;;;2.25;1.00;;;;;22.27;49.21;100499.13;5106965;27;47530;-59
2022/06/25 05:52:43;;;;;;;;;0.00;0.00;;;;;22.28;49.26;100498.16;5104959;27;51460;-59
2022/06/25 05:55:08;;;;;;;;;1.00;1.00;;;;;22.27;48.95;100497.28;5102320;27;48844;-59
2022/06/25 05:57:34;;;;;;;;;1.00;1.00;;;;;22.30;48.73;100493.56;5108165;27;45456;-58
2022/06/25 06:00:00;;;;;;;;;1.00;1.00;;;;;22.33;48.48;100491.50;5102614;27;46293;-58
2022/06/25 06:02:26;;;;;;;;;1.75;1.00;;;;;22.34;48.33;100492.31;5107642;27;46160;-58
2022/06/25 06:04:53;;;;;;;;;1.00;1.00;;;;;22.32;48.48;100489.78;5109876;27;45739;-58
2022/06/25 06:07:18;;;;;;;;;0.00;0.00;;;;;22.34;48.69;100500.31;5110446;27;45452;-58
2022/06/25 06:09:43;;;;;;;;;0.00;0.00;;;;;22.33;48.43;100501.31;5102048;27;73523;-58
2022/06/25 06:12:09;;;;;;;;;0.75;0.00;;;;;22.34;47.89;100498.50;5111494;27;63767;-58
2022/06/25 06:14:34;;;;;;;;;1.50;0.25;;;;;22.32;48.14;100500.44;5104909;27;45437;-58
2022/06/25 06:16:59;;;;;;;;;1.00;1.00;;;;;22.34;47.49;100503.81;5104142;27;63471;-59
2022/06/25 06:19:25;;;;;;;;;0.50;0.50;;;;;22.35;47.80;100505.53;5099481;27;46535;-58
2022/06/25 06:21:50;;;;;;;;;1.00;1.00;;;;;22.35;47.85;100502.03;5108063;27;57920;-59
2022/06/25 06:24:15;;;;;;;;;3.00;1.00;;;;;22.35;47.21;100505.53;5104563;27;58991;-59
2022/06/25 06:26:41;;;;;;;;;2.50;1.00;;;;;22.40;47.01;100505.19;5099954;27;45393;-59
2022/06/25 06:29:06;;;;;;;;;0.25;0.25;;;;;22.39;47.71;100511.47;5104311;27;49803;-58
2022/06/25 06:31:31;;;;;;;;;1.50;0.50;;;;;22.39;47.09;100510.63;5106492;27;51383;-59
2022/06/25 06:33:57;;;;;;;;;2.00;1.00;;;;;22.33;47.27;100504.81;5105449;27;45584;-58
2022/06/25 06:36:22;;;;;;;;;0.75;0.75;;;;;22.35;47.36;100508.19;5108761;27;45447;-58
2022/06/25 06:38:48;;;;;;;;;0.00;0.00;;;;;22.34;47.27;100503.00;5105637;27;47110;-58
2022/06/25 06:41:13;;;;;;;;;1.00;1.00;;;;;22.41;47.39;100514.84;5103548;27;45826;-58
2022/06/25 06:43:41;;;;;;;;;1.00;1.00;;;;;22.40;47.23;100513.19;5106601;27;53450;-58
2022/06/25 06:46:07;;;;;;;;;0.25;0.25;;;;;22.45;47.55;100519.00;5102698;27;45437;-58
2022/06/25 06:48:32;;;;;;;;;0.50;0.50;;;;;22.46;47.34;100511.84;5106706;27;73732;-59
2022/06/25 06:50:57;;;;;;;;;1.00;1.00;;;;;22.48;47.23;100508.06;5101816;27;54794;-58
2022/06/25 06:53:23;;;;;;;;;1.75;0.00;;;;;22.45;46.79;100505.66;5101413;27;64860;-58
2022/06/25 06:55:48;;;;;;;;;3.00;1.00;;;;;22.45;46.82;100513.66;5098465;27;70817;-61
2022/06/25 06:58:13;;;;;;;;;1.25;1.00;;;;;22.51;46.67;100517.66;5099575;27;67947;-57
2022/06/25 07:00:39;;;;;;;;;0.00;0.00;;;;;22.62;47.02;100516.78;5106028;27;68173;-58
2022/06/25 07:03:05;;;;;;;;;0.75;0.50;;;;;22.70;46.87;100517.84;5102782;27;45427;-58
2022/06/25 07:05:30;;;;;;;;;1.00;1.00;;;;;22.82;47.24;100529.31;5099467;27;45546;-58
2022/06/25 07:07:55;;;;;;;;;3.00;1.50;;;;;22.91;47.10;100527.72;5100181;27;57031;-58
2022/06/25 07:10:21;;;;;;;;;2.50;2.50;;;;;23.00;46.93;100518.09;5105610;27;60932;-58
2022/06/25 07:12:47;;;;;;;;;2.50;1.75;;;;;23.08;46.85;100521.84;5100138;27;45512;-58
2022/06/25 07:15:13;;;;;;;;;4.00;3.00;;;;;23.12;46.91;100514.44;5109571;27;70673;-58
2022/06/25 07:17:38;;;;;;;;;4.75;2.25;;;;;23.20;46.49;100517.31;5109326;27;46431;-58
2022/06/25 07:20:04;;;;;;;;;5.50;3.75;;;;;23.28;46.23;100519.34;5109202;27;62348;-58
2022/06/25 07:22:29;;;;;;;;;2.25;1.75;;;;;23.33;46.36;100517.13;5108039;27;47471;-58
2022/06/25 07:24:55;;;;;;;;;3.00;2.75;;;;;23.41;46.43;100525.34;5104246;27;67751;-58
2022/06/25 07:27:20;;;;;;;;;4.25;3.00;;;;;23.46;46.40;100524.94;5102855;27;65536;-57
2022/06/25 07:29:45;;;;;;;;;4.75;2.50;;;;;23.51;46.09;100533.41;5106373;27;45726;-58
2022/06/25 07:32:11;;;;;;;;;6.00;3.00;;;;;23.57;46.23;100521.38;5111640;27;59855;-57
2022/06/25 07:34:37;;;;;;;;;4.00;1.50;;;;;23.62;46.42;100525.38;5105572;27;72793;-57
2022/06/25 07:37:03;;;;;;;;;5.75;3.00;;;;;23.66;46.09;100532.13;5104253;27;45368;-58
2022/06/25 07:39:28;;;;;;;;;4.00;2.00;;;;;23.71;45.69;100537.09;5107791;27;45575;-56
2022/06/25 07:41:54;;;;;;;;;1.00;1.00;;;;;23.75;45.45;100538.50;5115030;27;67378;-57
2022/06/25 07:44:19;;;;;;;;;1.00;1.00;;;;;23.78;45.48;100540.06;5105972;27;45219;-57
2022/06/25 07:46:45;;;;;;;;;6.00;1.50;;;;;23.81;45.65;100539.84;5101761;27;57016;-57
2022/06/25 07:49:10;;;;;;;;;1.25;1.25;;;;;23.84;45.32;100539.56;5106238;27;45652;-57
2022/06/25 07:54:20;;;;;;;;;3.00;1.50;;;;;23.91;44.92;100540.75;5089441;27;45456;-57
2022/06/25 07:56:45;;;;;;;;;2.00;2.00;;;;;23.94;44.83;100548.50;5104976;27;45886;-57
2022/06/25 07:59:11;;;;;;;;;2.00;2.00;;;;;23.95;44.89;100552.84;5108892;27;59872;-57
2022/06/25 08:01:36;;;;;;;;;2.75;2.00;;;;;23.98;45.17;100552.59;5104401;27;60829;-57
2022/06/25 08:04:01;;;;;;;;;4.00;2.00;;;;;24.00;45.04;100553.31;5106198;27;65775;-58
2022/06/25 08:06:27;;;;;;;;;5.00;2.50;;;;;24.03;45.30;100563.72;5107509;27;45497;-58
2022/06/25 08:08:52;;;;;;;;;3.75;2.00;;;;;24.04;45.45;100552.03;5116955;27;45526;-59
2022/06/25 08:11:18;;;;;;;;;5.25;2.00;;;;;24.09;45.27;100564.19;5105776;27;45619;-59
2022/06/25 08:13:44;;;;;;;;;4.00;3.00;;;;;24.12;45.32;100558.59;5106209;27;45638;-60
2022/06/25 08:16:09;;;;;;;;;2.00;2.00;;;;;24.16;45.45;100560.84;5106831;27;46149;-60
2022/06/25 08:18:35;;;;;;;;;3.00;3.00;;;;;24.19;45.27;100555.22;5112435;27;45465;-58
2022/06/25 08:21:01;;;;;;;;;3.50;2.75;;;;;24.21;45.22;100561.28;5097245;27;45510;-59
2022/06/25 08:23:26;;;;;;;;;2.50;1.75;;;;;24.24;44.78;100563.69;5103280;27;50133;-59
2022/06/25 08:25:52;;;;;;;;;4.50;2.75;;;;;24.28;45.29;100563.44;5107428;27;46504;-59
2022/06/25 08:28:18;;;;;;;;;3.00;2.00;;;;;24.28;44.96;100558.94;5106883;27;45432;-59
2022/06/25 08:30:45;;;;;;;;;3.00;3.00;;;;;24.30;44.88;100562.31;5102368;27;45708;-59
2022/06/25 08:33:10;;;;;;;;;2.75;1.75;;;;;24.33;45.06;100555.81;5114257;27;45586;-59
2022/06/25 08:35:36;;;;;;;;;5.25;2.50;;;;;24.37;44.79;100558.09;5112446;27;46060;-59
2022/06/25 08:38:02;;;;;;;;;10.00;8.75;;;;;24.38;44.59;100566.97;5102841;27;45474;-59
2022/06/25 08:40:27;;;;;;;;;28.00;22.00;;;;;24.39;44.44;100582.06;5107615;27;45487;-59
2022/06/25 08:42:53;;;;;;;;;46.00;36.00;;;;;24.40;43.86;100581.06;5111601;27;51812;-59
2022/06/25 08:45:18;;;;;;;;;77.25;60.25;;;;;24.38;44.14;100585.69;5108565;27;45414;-60
2022/06/25 08:47:51;;;;;;;;;36.25;27.00;;;;;24.33;43.79;100570.06;5103951;27;45511;-60
2022/06/25 08:50:21;;;;;;;;;20.50;16.75;;;;;24.26;43.72;100580.44;5108038;27;45443;-60
2022/06/25 08:52:51;;;;;;;;;12.50;7.50;;;;;24.22;43.35;100580.84;5107390;27;45692;-60
2022/06/25 08:55:22;;;;;;;;;8.00;7.75;;;;;24.16;43.30;100587.56;5105127;27;47534;-60
2022/06/25 08:57:47;;;;;;;;;4.50;3.50;;;;;24.12;43.21;100585.31;5104578;27;45498;-59
2022/06/25 09:00:13;;;;;;;;;4.00;4.00;;;;;24.09;43.46;100585.56;5103526;27;45259;-60
2022/06/25 09:02:39;;;;;;;;;4.25;2.50;;;;;23.99;43.04;100575.69;5090071;27;45819;-59
2022/06/25 09:05:07;;;;;;;;;4.25;2.75;;;;;23.99;43.38;100580.16;5111023;27;45585;-60
2022/06/25 09:07:32;;;;;;;;;3.75;3.00;;;;;23.96;42.90;100585.78;5104533;27;45430;-59
2022/06/25 09:09:58;;;;;;;;;7.75;2.00;;;;;23.94;42.95;100587.72;5083894;27;58402;-59
2022/06/25 09:12:23;;;;;;;;;6.25;2.50;;;;;23.86;43.03;100580.38;5101353;27;45360;-59
2022/06/25 09:14:48;;;;;;;;;2.00;2.00;;;;;23.82;42.84;100587.81;5103310;27;67582;-60
2022/06/25 09:17:15;;;;;;;;;2.50;1.75;;;;;23.82;43.25;100590.47;5103508;27;45412;-60
2022/06/25 09:19:41;;;;;;;;;5.25;2.00;;;;;23.79;43.08;100585.34;5102672;27;45510;-61
2022/06/25 09:22:09;;;;;;;;;1.25;1.25;;;;;23.77;43.43;100578.47;5094931;27;45369;-60
2022/06/25 09:24:57;;;;;;;;;3.25;2.00;;;;;23.73;43.58;100580.56;5104630;27;46310;-60
2022/06/25 09:27:28;;;;;;;;;2.50;2.00;;;;;23.73;43.42;100579.69;5100963;27;45432;-58
2022/06/25 09:29:53;;;;;;;;;1.75;1.75;;;;;23.71;43.24;100574.50;5101342;27;45578;-48
2022/06/25 09:32:19;;;;;;;;;3.25;2.25;;;;;23.69;43.23;100568.41;5100862;27;45866;-53
2022/06/25 09:34:44;;;;;;;;;3.00;1.00;;;;;23.69;43.36;100565.72;5109614;27;46221;-53
2022/06/25 09:37:18;;;;;;;;;2.75;2.00;;;;;23.69;43.82;100565.72;5108073;27;45222;-52
2022/06/25 09:39:44;;;;;;;;;2.00;2.00;;;;;23.69;43.67;100563.06;5107143;27;45398;-53
2022/06/25 09:42:29;;;;;;;;;2.00;2.00;;;;;23.68;44.02;100564.91;5101310;27;45231;-52
2022/06/25 09:44:58;;;;;;;;;4.00;2.75;;;;;23.64;43.72;100551.94;5098692;27;45638;-53
2022/06/25 09:47:25;;;;;;;;;4.50;2.00;;;;;23.64;44.09;100557.28;5099076;27;45418;-52
2022/06/25 09:50:02;;;;;;;;;2.75;2.00;;;;;23.62;43.74;100560.09;5106038;27;45279;-53
2022/06/25 09:52:27;;;;;;;;;3.50;2.25;;;;;23.61;43.38;100561.06;5101311;27;45420;-53
2022/06/25 09:54:53;;;;;;;;;2.75;2.00;;;;;23.61;43.67;100560.22;5098638;27;75582;-50
2022/06/25 09:57:18;;;;;;;;;3.00;3.00;;;;;23.61;43.48;100568.22;5097976;27;59023;-50
2022/06/25 09:59:44;;;;;;;;;4.00;2.75;;;;;23.61;43.74;100565.56;5099871;27;65551;-50
2022/06/25 10:02:10;;;;;;;;;5.75;3.00;;;;;23.60;43.04;100571.88;5099332;27;45381;-52
2022/06/25 10:04:36;;;;;;;;;4.00;3.00;;;;;23.61;43.33;100570.91;5105313;27;71078;-52
2022/06/25 10:07:07;;;;;;;;;4.00;2.25;;;;;23.61;43.45;100573.56;5106996;27;45393;-53
2022/06/25 10:09:33;;;;;;;;;4.50;3.25;;;;;23.62;42.97;100567.25;5107697;27;45251;-53
2022/06/25 10:11:59;;;;;;;;;4.25;3.00;;;;;23.62;42.96;100565.44;5098671;27;50829;-51
2022/06/25 10:14:25;;;;;;;;;9.25;8.00;;;;;23.62;43.52;100562.75;5102574;27;64635;-51
2022/06/25 10:16:51;;;;;;;;;6.25;4.00;;;;;23.62;43.20;100560.09;5111854;27;46757;-50
2022/06/25 10:19:17;;;;;;;;;4.75;4.25;;;;;23.61;43.56;100566.41;5059841;27;1148955;-51
2022/06/25 10:21:42;;;;;;;;;4.75;4.00;;;;;23.48;42.45;100560.41;5087540;27;56587;-51
2022/06/25 10:24:08;;;;;;;;;3.00;3.00;;;;;23.15;42.99;100562.25;5110248;27;69050;-52
2022/06/25 10:28:47;;;;;;;;;5.00;4.00;;;;;22.80;43.74;100560.59;5057413;28;45919;-51
2022/06/25 10:31:16;;;;;;;;;2.00;2.00;;;;;22.72;43.76;100555.06;5054141;28;45843;-52
2022/06/25 10:34:15;;;;;;;;;4.25;3.75;;;;;22.66;44.14;100555.56;5051676;28;45328;-54
2022/06/25 10:36:41;;;;;;;;;2.50;1.25;;;;;22.60;44.26;100553.41;5048663;28;45348;-55
2022/06/25 10:39:25;;;;;;;;;3.00;3.00;;;;;22.59;45.09;100551.69;5025795;28;45592;-54
2022/06/25 10:45:05;;;;;;;;;4.50;3.75;;;;;22.60;45.53;100548.91;5049060;28;45679;-53
2022/06/25 10:47:39;;;;;;;;;6.75;4.25;;;;;22.64;45.33;100549.50;5049234;28;45578;-52
2022/06/25 10:50:30;;;;;;;;;5.75;5.00;;;;;22.64;45.27;100552.16;5055899;28;46131;-49
2022/06/25 10:53:02;;;;;;;;;7.00;5.75;;;;;22.62;45.44;100552.28;5050014;28;45525;-51
2022/06/25 10:55:39;;;;;;;;;3.25;3.25;;;;;22.61;45.21;100553.28;5051305;28;45273;-50
2022/06/25 10:58:16;;;;;;;;;6.00;3.00;;;;;22.64;45.36;100552.16;5049403;28;45740;-53
2022/06/25 11:00:46;;;;;;;;;4.00;3.00;;;;;22.69;45.13;100555.31;5049022;28;46470;-51
2022/06/25 11:03:11;;;;;;;;;3.00;2.00;;;;;22.79;44.83;100555.41;5052720;28;45670;-51
2022/06/25 11:05:47;;;;;;;;;2.50;2.50;;;;;22.89;44.57;100559.00;5040262;28;45569;-54
2022/06/25 11:08:12;;;;;;;;;5.50;3.50;;;;;22.94;44.40;100559.50;5047071;28;45990;-52
2022/06/25 11:10:39;;;;;;;;;4.25;3.00;;;;;22.92;44.41;100554.28;5031221;28;46806;-52
2022/06/25 11:13:05;;;;;;;;;3.00;3.00;;;;;22.95;44.41;100561.19;5052215;28;45536;-55
2022/06/25 11:15:40;;;;;;;;;4.00;2.75;;;;;22.98;44.00;100554.75;5044944;28;45217;-53
2022/06/25 11:18:07;;;;;;;;;4.75;2.75;;;;;23.02;44.35;100553.50;5050985;28;46047;-52
2022/06/25 11:20:33;;;;;;;;;2.25;2.25;;;;;23.05;44.41;100572.81;5044865;28;45983;-48
2022/06/25 11:22:59;;;;;;;;;4.50;4.00;;;;;23.05;44.12;100561.31;5049640;28;45340;-51
2022/06/25 11:30:52;;;;;;;;;6.25;4.75;;;;;22.77;44.75;100563.56;5051879;28;45414;-59
2022/06/25 11:33:17;;;;;;;;;2.50;1.25;;;;;22.66;44.69;100567.06;5049186;28;73104;-58
2022/06/25 11:35:44;;;;;;;;;4.25;4.00;;;;;22.54;44.69;100554.72;5030493;28;45299;-61
2022/06/25 11:38:18;;;;;;;;;4.50;3.00;;;;;22.46;44.72;100563.34;5037910;28;45513;-60
2022/06/25 11:40:44;;;;;;;;;4.25;4.00;;;;;22.45;45.25;100563.44;5039958;28;48098;-60
2022/06/25 11:43:10;;;;;;;;;8.00;4.00;;;;;22.44;45.13;100565.28;5011751;28;45445;-59